Mohawk, MI (49950)

10:16 AM EDT on April 18, 2015 (GMT -0400)
MesoWest | | Change Station
CLOSE
Current Station
Personal Weather Station
Location: Laurium, MI
Elevation: 1170 ft
Nearby Weather Stations

Elev 1170 ft 47.22 °N, 88.46 °W | Updated 31 minutes ago

Partly Cloudy
Partly Cloudy
41 °F
Feels Like 38 °F
N
4
Wind Variable Wind from ENE
Gusts 10.0 mph

Today
High -- | Low -- °F
--% Chance of Precip.
Yesterday
High -- | Low -- °F
Precip. -- in
7:00 AM 8:46 PM
Waning Crescent, 0% visible
Pressure 30.26 in
Visibility 10.0 miles
Clouds Scattered Clouds 1700 ft
Windchill 38 °F
Dew Point 33 °F
Humidity 73%
Rainfall in
Snow Depth Not available.
UV 2 out of 12
Pollen 10.00 out of 12
Air Quality Not available.
Flu Activity Regional
METAR KCMX 181353Z AUTO 12007KT 10SM SCT017 06/00 A3024 RMK AO2 SLP247 T00560000

More Conditions Fewer Conditions

Pressure 30.26 in
Visibility 10.0 miles
Clouds Scattered Clouds 1700 ft
Windchill 38 °F
Dew Point 33 °F
Humidity 73%
Rainfall in
Snow Depth Not available.
UV 2 out of 12
Pollen 10.00 out of 12
Air Quality Not available.
Flu Activity Regional
METAR KCMX 181353Z AUTO 12007KT 10SM SCT017 06/00 A3024 RMK AO2 SLP247 T00560000

More Conditions Fewer Conditions

10-Day Weather Forecast

Almanac

Astronomy

Apr. 18, 2015 Rise Set
Actual Time
Civil Twilight
Nautical Twilight
Astronomical Twilight
Moon
Length of Visible Light
Length of Day
Tomorrow will be .
, % of the Moon is Illuminated

Today's Extremes

State Highs State Lows

Community

WunderPhotos

Upload Photos

1,814,409 photos uploaded!

WunderBlogs® & News

Nearby

Air Quality

  Air Quality AQ Index Pollutant
Not available.

Snow Depth

Station Depth Elevation

Earthquake Activity

City Distance Mag. Time & Date
Minimum magnitude displayed is 2.5.

Coastal Water Temperatures

Place Temperature

Stations

Nearby Weather Stations

Station Location Temp. Windchill Dew Point Humidity Wind Precip. Elev Updated Type